KFWA/FWA METAR and TAF weather

Enter ICAO airport designator
Station Type Date Time Source
KFWA METAR 2019/02/18 03:54 UTC NOAA

KFWA 180354Z 04006KT 9SM -SN OVC011 M03/M04 A2987 RMK AO2 SLP123 P0000 T10281044 $


Station Type Date Time Source
KFWA Decoded METAR 2019/02/18 03:54 UTC NOAA

FORT WAYNE INTERNATIONAL, IN, United States (KFWA) 41-00N 85-12W 248M
Feb 17, 2019 - 10:54 PM EST / 2019.02.18 0354 UTC
Wind: from the NE (040 degrees) at 7 MPH (6 KT):0
Visibility: 9 mile(s):0
Sky conditions: overcast
Weather: light snow
Precipitation last hour: A trace
Temperature: 27.0 F (-2.8 C)
Windchill: 19 F (-7 C):1
Dew Point: 24.1 F (-4.4 C)
Relative Humidity: 88%
Pressure (altimeter): 29.87 in. Hg (1011 hPa)
ob: KFWA 180354Z 04006KT 9SM -SN OVC011 M03/M04 A2987 RMK AO2 SLP123 P0000 T10281044
cycle: 4

Station Type Date Time Source
KFWA TAF 2019/02/17 20:30 UTC NOAA

TAF
AMD KFWA 172028Z 1720/1818 07012G18KT 4SM -SN BR OVC015
TEMPO 1720/1723 2SM -FZDZSN BR OVC008
FM172300 06008KT 3SM -SN BR OVC008
FM180400 32008KT P6SM OVC015


Example: see airport list